sensor_id;sensor_type;location;lat;lon;timestamp;pressure;altitude;pressure_sealevel;temperature;humidity
56582;BME280;42463;52.214;21.238;2022-11-20T00:01:05;100273.94;;;-1.82;57.29
56582;BME280;42463;52.214;21.238;2022-11-20T00:03:28;100276.34;;;-1.78;57.29
56582;BME280;42463;52.214;21.238;2022-11-20T00:05:51;100280.54;;;-1.76;57.01
56582;BME280;42463;52.214;21.238;2022-11-20T00:08:14;100285.29;;;-1.74;57.06
56582;BME280;42463;52.214;21.238;2022-11-20T00:10:37;100286.98;;;-1.70;56.89
56582;BME280;42463;52.214;21.238;2022-11-20T00:13:00;100290.04;;;-1.71;56.81
56582;BME280;42463;52.214;21.238;2022-11-20T00:15:23;100287.21;;;-1.71;56.99
56582;BME280;42463;52.214;21.238;2022-11-20T00:17:46;100288.45;;;-1.71;56.88
56582;BME280;42463;52.214;21.238;2022-11-20T00:20:10;100286.04;;;-1.73;56.98
56582;BME280;42463;52.214;21.238;2022-11-20T00:22:34;100284.83;;;-1.75;56.94
56582;BME280;42463;52.214;21.238;2022-11-20T00:24:57;100280.98;;;-1.77;56.74
56582;BME280;42463;52.214;21.238;2022-11-20T00:27:20;100280.63;;;-1.78;56.81
56582;BME280;42463;52.214;21.238;2022-11-20T00:29:43;100281.16;;;-1.83;56.88
56582;BME280;42463;52.214;21.238;2022-11-20T00:32:06;100276.44;;;-1.88;57.08
56582;BME280;42463;52.214;21.238;2022-11-20T00:34:30;100278.52;;;-1.95;56.87
56582;BME280;42463;52.214;21.238;2022-11-20T00:36:53;100279.21;;;-2.00;57.10
56582;BME280;42463;52.214;21.238;2022-11-20T00:39:16;100275.94;;;-2.02;57.31
56582;BME280;42463;52.214;21.238;2022-11-20T00:41:39;100276.06;;;-2.05;57.27
56582;BME280;42463;52.214;21.238;2022-11-20T00:44:02;100279.66;;;-2.05;57.47
56582;BME280;42463;52.214;21.238;2022-11-20T00:46:26;100274.77;;;-2.06;57.47
56582;BME280;42463;52.214;21.238;2022-11-20T00:48:49;100273.15;;;-2.07;57.53
56582;BME280;42463;52.214;21.238;2022-11-20T00:51:13;100271.34;;;-2.08;57.49
56582;BME280;42463;52.214;21.238;2022-11-20T00:53:36;100273.50;;;-2.10;57.52
56582;BME280;42463;52.214;21.238;2022-11-20T00:56:00;100273.33;;;-2.13;57.47
56582;BME280;42463;52.214;21.238;2022-11-20T00:58:23;100270.60;;;-2.13;57.38
56582;BME280;42463;52.214;21.238;2022-11-20T01:00:47;100271.52;;;-2.14;57.28
56582;BME280;42463;52.214;21.238;2022-11-20T01:03:10;100272.06;;;-2.13;57.62
56582;BME280;42463;52.214;21.238;2022-11-20T01:05:35;100269.69;;;-2.09;57.69
56582;BME280;42463;52.214;21.238;2022-11-20T01:07:58;100266.61;;;-2.03;57.42
56582;BME280;42463;52.214;21.238;2022-11-20T01:10:21;100261.89;;;-1.97;57.54
56582;BME280;42463;52.214;21.238;2022-11-20T01:12:45;100258.75;;;-1.91;57.38
56582;BME280;42463;52.214;21.238;2022-11-20T01:15:28;100256.83;;;-1.85;57.46
56582;BME280;42463;52.214;21.238;2022-11-20T01:17:51;100254.55;;;-1.81;57.10
56582;BME280;42463;52.214;21.238;2022-11-20T01:20:14;100251.88;;;-1.78;57.23
56582;BME280;42463;52.214;21.238;2022-11-20T01:22:38;100251.36;;;-1.77;57.06
56582;BME280;42463;52.214;21.238;2022-11-20T01:25:00;100248.45;;;-1.77;56.76
56582;BME280;42463;52.214;21.238;2022-11-20T01:27:24;100244.50;;;-1.83;56.85
56582;BME280;42463;52.214;21.238;2022-11-20T01:29:47;100241.96;;;-1.95;56.63
56582;BME280;42463;52.214;21.238;2022-11-20T01:32:10;100245.51;;;-2.02;57.03
56582;BME280;42463;52.214;21.238;2022-11-20T01:34:33;100247.11;;;-2.04;57.21
56582;BME280;42463;52.214;21.238;2022-11-20T01:36:56;100250.48;;;-2.04;57.27
56582;BME280;42463;52.214;21.238;2022-11-20T01:39:20;100244.29;;;-2.04;57.33
56582;BME280;42463;52.214;21.238;2022-11-20T01:41:44;100243.52;;;-2.07;57.21
56582;BME280;42463;52.214;21.238;2022-11-20T01:47:03;100246.22;;;-2.13;57.29
56582;BME280;42463;52.214;21.238;2022-11-20T01:49:28;100241.59;;;-2.16;57.19
56582;BME280;42463;52.214;21.238;2022-11-20T01:51:53;100242.38;;;-2.20;57.32
56582;BME280;42463;52.214;21.238;2022-11-20T01:54:18;100239.85;;;-2.24;57.37
56582;BME280;42463;52.214;21.238;2022-11-20T01:56:42;100235.10;;;-2.29;57.29
56582;BME280;42463;52.214;21.238;2022-11-20T01:59:07;100234.79;;;-2.33;57.64
56582;BME280;42463;52.214;21.238;2022-11-20T02:04:11;100234.99;;;-2.41;57.74
56582;BME280;42463;52.214;21.238;2022-11-20T02:06:37;100233.23;;;-2.43;57.87
56582;BME280;42463;52.214;21.238;2022-11-20T02:09:02;100232.77;;;-2.46;57.92
56582;BME280;42463;52.214;21.238;2022-11-20T02:11:26;100227.23;;;-2.48;58.06
56582;BME280;42463;52.214;21.238;2022-11-20T02:13:49;100221.72;;;-2.51;58.26
56582;BME280;42463;52.214;21.238;2022-11-20T02:16:16;100217.89;;;-2.55;58.44
56582;BME280;42463;52.214;21.238;2022-11-20T02:18:40;100220.25;;;-2.57;58.71
56582;BME280;42463;52.214;21.238;2022-11-20T02:21:05;100221.41;;;-2.58;58.80
56582;BME280;42463;52.214;21.238;2022-11-20T02:23:30;100212.80;;;-2.60;59.02
56582;BME280;42463;52.214;21.238;2022-11-20T02:25:55;100214.11;;;-2.62;59.17
56582;BME280;42463;52.214;21.238;2022-11-20T02:28:19;100210.27;;;-2.64;59.37
56582;BME280;42463;52.214;21.238;2022-11-20T02:30:43;100214.66;;;-2.67;59.41
56582;BME280;42463;52.214;21.238;2022-11-20T02:33:07;100216.41;;;-2.66;59.56
56582;BME280;42463;52.214;21.238;2022-11-20T02:35:43;100219.15;;;-2.61;59.76
56582;BME280;42463;52.214;21.238;2022-11-20T02:38:06;100219.33;;;-2.58;60.10
56582;BME280;42463;52.214;21.238;2022-11-20T02:40:29;100215.46;;;-2.55;60.23
56582;BME280;42463;52.214;21.238;2022-11-20T02:42:52;100215.34;;;-2.49;60.05
56582;BME280;42463;52.214;21.238;2022-11-20T02:45:16;100217.49;;;-2.44;60.08
56582;BME280;42463;52.214;21.238;2022-11-20T02:47:39;100223.59;;;-2.38;60.09
56582;BME280;42463;52.214;21.238;2022-11-20T02:50:02;100224.53;;;-2.34;59.98
56582;BME280;42463;52.214;21.238;2022-11-20T02:52:25;100228.27;;;-2.31;60.03
56582;BME280;42463;52.214;21.238;2022-11-20T02:54:49;100229.82;;;-2.29;59.88
56582;BME280;42463;52.214;21.238;2022-11-20T02:57:11;100231.96;;;-2.27;59.96
56582;BME280;42463;52.214;21.238;2022-11-20T02:59:34;100234.70;;;-2.24;59.88
56582;BME280;42463;52.214;21.238;2022-11-20T03:01:58;100236.83;;;-2.19;59.92
56582;BME280;42463;52.214;21.238;2022-11-20T03:04:21;100237.05;;;-2.17;60.00
56582;BME280;42463;52.214;21.238;2022-11-20T03:06:44;100233.58;;;-2.14;59.90
56582;BME280;42463;52.214;21.238;2022-11-20T03:09:07;100237.48;;;-2.13;59.75
56582;BME280;42463;52.214;21.238;2022-11-20T03:11:30;100236.31;;;-2.12;59.70
56582;BME280;42463;52.214;21.238;2022-11-20T03:13:53;100232.95;;;-2.12;59.84
56582;BME280;42463;52.214;21.238;2022-11-20T03:16:17;100235.33;;;-2.12;59.65
56582;BME280;42463;52.214;21.238;2022-11-20T03:18:41;100236.30;;;-2.15;59.61
56582;BME280;42463;52.214;21.238;2022-11-20T03:21:04;100230.23;;;-2.16;59.59
56582;BME280;42463;52.214;21.238;2022-11-20T03:23:30;100229.77;;;-2.18;59.67
56582;BME280;42463;52.214;21.238;2022-11-20T03:25:53;100223.21;;;-2.19;59.59
56582;BME280;42463;52.214;21.238;2022-11-20T03:28:16;100226.11;;;-2.22;59.81
56582;BME280;42463;52.214;21.238;2022-11-20T03:30:40;100229.02;;;-2.24;59.75
56582;BME280;42463;52.214;21.238;2022-11-20T03:33:03;100229.00;;;-2.27;59.66
56582;BME280;42463;52.214;21.238;2022-11-20T03:35:26;100225.73;;;-2.29;59.50
56582;BME280;42463;52.214;21.238;2022-11-20T03:37:48;100229.07;;;-2.30;59.52
56582;BME280;42463;52.214;21.238;2022-11-20T03:40:12;100223.48;;;-2.30;59.73
56582;BME280;42463;52.214;21.238;2022-11-20T03:42:34;100223.13;;;-2.27;60.11
56582;BME280;42463;52.214;21.238;2022-11-20T03:45:10;100221.17;;;-2.17;60.04
56582;BME280;42463;52.214;21.238;2022-11-20T03:47:33;100221.89;;;-2.11;59.78
56582;BME280;42463;52.214;21.238;2022-11-20T03:49:55;100226.13;;;-2.08;59.49
56582;BME280;42463;52.214;21.238;2022-11-20T03:52:19;100223.88;;;-2.09;59.47
56582;BME280;42463;52.214;21.238;2022-11-20T03:54:42;100218.05;;;-2.09;59.45
56582;BME280;42463;52.214;21.238;2022-11-20T03:57:05;100218.48;;;-2.08;59.44
56582;BME280;42463;52.214;21.238;2022-11-20T03:59:28;100219.59;;;-2.10;59.25
56582;BME280;42463;52.214;21.238;2022-11-20T04:01:51;100219.09;;;-2.14;59.09
56582;BME280;42463;52.214;21.238;2022-11-20T04:04:14;100219.13;;;-2.19;59.23
56582;BME280;42463;52.214;21.238;2022-11-20T04:06:37;100220.19;;;-2.24;59.34
56582;BME280;42463;52.214;21.238;2022-11-20T04:09:00;100220.52;;;-2.29;59.15
56582;BME280;42463;52.214;21.238;2022-11-20T04:11:24;100216.27;;;-2.33;59.42
56582;BME280;42463;52.214;21.238;2022-11-20T04:13:48;100211.71;;;-2.34;59.69
56582;BME280;42463;52.214;21.238;2022-11-20T04:16:12;100206.96;;;-2.34;59.58
56582;BME280;42463;52.214;21.238;2022-11-20T04:18:35;100205.64;;;-2.35;59.50
56582;BME280;42463;52.214;21.238;2022-11-20T04:20:58;100207.77;;;-2.30;59.63
56582;BME280;42463;52.214;21.238;2022-11-20T04:23:21;100206.53;;;-2.29;59.35
56582;BME280;42463;52.214;21.238;2022-11-20T04:25:44;100207.53;;;-2.30;59.02
56582;BME280;42463;52.214;21.238;2022-11-20T04:28:07;100201.52;;;-2.28;59.13
56582;BME280;42463;52.214;21.238;2022-11-20T04:30:30;100204.42;;;-2.26;59.26
56582;BME280;42463;52.214;21.238;2022-11-20T04:32:53;100202.77;;;-2.22;59.22
56582;BME280;42463;52.214;21.238;2022-11-20T04:35:18;100200.67;;;-2.18;59.36
56582;BME280;42463;52.214;21.238;2022-11-20T04:37:41;100199.50;;;-2.11;59.14
56582;BME280;42463;52.214;21.238;2022-11-20T04:40:05;100197.95;;;-2.03;58.90
56582;BME280;42463;52.214;21.238;2022-11-20T04:42:28;100195.94;;;-2.01;58.65
56582;BME280;42463;52.214;21.238;2022-11-20T04:44:51;100193.59;;;-2.02;58.13
56582;BME280;42463;52.214;21.238;2022-11-20T04:47:14;100193.02;;;-2.05;58.10
56582;BME280;42463;52.214;21.238;2022-11-20T04:49:37;100190.83;;;-2.08;58.35
56582;BME280;42463;52.214;21.238;2022-11-20T04:52:00;100185.87;;;-2.09;58.25
56582;BME280;42463;52.214;21.238;2022-11-20T04:54:23;100181.43;;;-2.15;58.08
56582;BME280;42463;52.214;21.238;2022-11-20T04:56:46;100179.27;;;-2.21;58.22
56582;BME280;42463;52.214;21.238;2022-11-20T04:59:09;100176.31;;;-2.28;57.90
56582;BME280;42463;52.214;21.238;2022-11-20T05:01:32;100174.88;;;-2.32;58.04
56582;BME280;42463;52.214;21.238;2022-11-20T05:03:56;100176.27;;;-2.37;58.17
56582;BME280;42463;52.214;21.238;2022-11-20T05:06:19;100172.56;;;-2.42;58.19
56582;BME280;42463;52.214;21.238;2022-11-20T05:08:42;100167.86;;;-2.49;58.06
56582;BME280;42463;52.214;21.238;2022-11-20T05:11:06;100161.70;;;-2.56;58.34
56582;BME280;42463;52.214;21.238;2022-11-20T05:13:30;100166.91;;;-2.56;58.54
56582;BME280;42463;52.214;21.238;2022-11-20T05:15:53;100169.20;;;-2.58;58.58
56582;BME280;42463;52.214;21.238;2022-11-20T05:18:16;100169.05;;;-2.60;58.71
56582;BME280;42463;52.214;21.238;2022-11-20T05:20:39;100168.30;;;-2.61;58.72
56582;BME280;42463;52.214;21.238;2022-11-20T05:23:02;100170.33;;;-2.62;58.65
56582;BME280;42463;52.214;21.238;2022-11-20T05:25:25;100166.66;;;-2.65;58.65
56582;BME280;42463;52.214;21.238;2022-11-20T05:27:48;100169.35;;;-2.70;58.55
56582;BME280;42463;52.214;21.238;2022-11-20T05:30:13;100171.02;;;-2.74;58.45
56582;BME280;42463;52.214;21.238;2022-11-20T05:32:36;100168.64;;;-2.79;58.66
56582;BME280;42463;52.214;21.238;2022-11-20T05:34:59;100167.77;;;-2.84;58.60
56582;BME280;42463;52.214;21.238;2022-11-20T05:37:22;100163.83;;;-2.87;58.65
56582;BME280;42463;52.214;21.238;2022-11-20T05:39:45;100163.70;;;-2.85;58.72
56582;BME280;42463;52.214;21.238;2022-11-20T05:42:08;100160.46;;;-2.83;58.75
56582;BME280;42463;52.214;21.238;2022-11-20T05:44:54;100159.85;;;-2.80;58.75
56582;BME280;42463;52.214;21.238;2022-11-20T05:47:17;100151.33;;;-2.77;58.68
56582;BME280;42463;52.214;21.238;2022-11-20T05:49:40;100150.32;;;-2.74;58.42
56582;BME280;42463;52.214;21.238;2022-11-20T05:52:04;100150.48;;;-2.72;58.20
56582;BME280;42463;52.214;21.238;2022-11-20T05:54:27;100150.69;;;-2.70;58.53
56582;BME280;42463;52.214;21.238;2022-11-20T05:56:50;100152.95;;;-2.69;58.42
56582;BME280;42463;52.214;21.238;2022-11-20T05:59:13;100151.17;;;-2.70;58.18
56582;BME280;42463;52.214;21.238;2022-11-20T06:01:36;100147.66;;;-2.72;58.34
56582;BME280;42463;52.214;21.238;2022-11-20T06:03:59;100155.80;;;-2.75;58.25
56582;BME280;42463;52.214;21.238;2022-11-20T06:06:22;100159.04;;;-2.77;58.45
56582;BME280;42463;52.214;21.238;2022-11-20T06:08:46;100155.92;;;-2.79;58.15
56582;BME280;42463;52.214;21.238;2022-11-20T06:11:10;100154.95;;;-2.85;58.23
56582;BME280;42463;52.214;21.238;2022-11-20T06:13:34;100157.31;;;-2.85;58.60
56582;BME280;42463;52.214;21.238;2022-11-20T06:15:57;100154.17;;;-2.86;58.50
56582;BME280;42463;52.214;21.238;2022-11-20T06:18:20;100153.02;;;-2.90;58.36
56582;BME280;42463;52.214;21.238;2022-11-20T06:20:43;100148.80;;;-2.95;58.36
56582;BME280;42463;52.214;21.238;2022-11-20T06:23:07;100147.45;;;-2.97;58.48
56582;BME280;42463;52.214;21.238;2022-11-20T06:25:29;100144.05;;;-2.98;58.56
56582;BME280;42463;52.214;21.238;2022-11-20T06:27:53;100144.09;;;-3.01;58.78
56582;BME280;42463;52.214;21.238;2022-11-20T06:30:16;100145.40;;;-3.04;58.53
56582;BME280;42463;52.214;21.238;2022-11-20T06:32:39;100140.48;;;-3.07;58.61
56582;BME280;42463;52.214;21.238;2022-11-20T06:35:02;100140.58;;;-3.08;58.71
56582;BME280;42463;52.214;21.238;2022-11-20T06:37:25;100146.60;;;-3.06;58.86
56582;BME280;42463;52.214;21.238;2022-11-20T06:39:48;100145.55;;;-3.06;58.88
56582;BME280;42463;52.214;21.238;2022-11-20T06:42:11;100146.61;;;-3.07;58.98
56582;BME280;42463;52.214;21.238;2022-11-20T06:44:34;100146.33;;;-3.03;59.06
56582;BME280;42463;52.214;21.238;2022-11-20T06:46:57;100143.91;;;-2.97;59.02
56582;BME280;42463;52.214;21.238;2022-11-20T06:49:20;100145.11;;;-2.90;58.89
56582;BME280;42463;52.214;21.238;2022-11-20T06:51:43;100142.89;;;-2.84;58.81
56582;BME280;42463;52.214;21.238;2022-11-20T06:54:07;100144.14;;;-2.79;59.02
56582;BME280;42463;52.214;21.238;2022-11-20T06:56:30;100142.29;;;-2.69;59.00
56582;BME280;42463;52.214;21.238;2022-11-20T06:58:53;100144.91;;;-2.58;58.92
56582;BME280;42463;52.214;21.238;2022-11-20T07:01:16;100141.57;;;-2.46;58.92
56582;BME280;42463;52.214;21.238;2022-11-20T07:03:40;100139.45;;;-2.32;58.65
56582;BME280;42463;52.214;21.238;2022-11-20T07:06:03;100140.05;;;-2.16;58.76
56582;BME280;42463;52.214;21.238;2022-11-20T07:08:27;100143.79;;;-1.99;58.77
56582;BME280;42463;52.214;21.238;2022-11-20T07:10:50;100144.03;;;-1.82;58.36
56582;BME280;42463;52.214;21.238;2022-11-20T07:13:13;100143.13;;;-1.68;58.30
56582;BME280;42463;52.214;21.238;2022-11-20T07:15:36;100137.85;;;-1.57;58.06
56582;BME280;42463;52.214;21.238;2022-11-20T07:17:59;100134.81;;;-1.43;57.74
56582;BME280;42463;52.214;21.238;2022-11-20T07:20:22;100133.95;;;-1.32;57.61
56582;BME280;42463;52.214;21.238;2022-11-20T07:22:45;100127.98;;;-1.20;57.04
56582;BME280;42463;52.214;21.238;2022-11-20T07:25:08;100122.52;;;-1.09;57.14
56582;BME280;42463;52.214;21.238;2022-11-20T07:27:32;100123.47;;;-0.98;56.91
56582;BME280;42463;52.214;21.238;2022-11-20T07:29:56;100126.99;;;-0.87;56.85
56582;BME280;42463;52.214;21.238;2022-11-20T07:32:19;100128.16;;;-0.78;56.65
56582;BME280;42463;52.214;21.238;2022-11-20T07:34:42;100133.15;;;-0.68;56.39
56582;BME280;42463;52.214;21.238;2022-11-20T07:37:05;100129.35;;;-0.59;56.18
56582;BME280;42463;52.214;21.238;2022-11-20T07:39:28;100121.24;;;-0.49;56.19
56582;BME280;42463;52.214;21.238;2022-11-20T07:41:51;100115.93;;;-0.40;56.08
56582;BME280;42463;52.214;21.238;2022-11-20T07:44:14;100115.77;;;-0.30;55.77
56582;BME280;42463;52.214;21.238;2022-11-20T07:46:37;100116.39;;;-0.22;55.58
56582;BME280;42463;52.214;21.238;2022-11-20T07:49:00;100114.92;;;-0.16;55.78
56582;BME280;42463;52.214;21.238;2022-11-20T07:51:23;100117.52;;;-0.10;55.54
56582;BME280;42463;52.214;21.238;2022-11-20T07:53:47;100113.66;;;-0.04;55.81
56582;BME280;42463;52.214;21.238;2022-11-20T07:56:12;100116.31;;;0.05;55.53
56582;BME280;42463;52.214;21.238;2022-11-20T07:58:36;100117.63;;;0.12;55.64
56582;BME280;42463;52.214;21.238;2022-11-20T08:01:03;100119.67;;;0.17;55.25
56582;BME280;42463;52.214;21.238;2022-11-20T08:03:26;100117.61;;;0.20;55.10
56582;BME280;42463;52.214;21.238;2022-11-20T08:05:49;100113.63;;;0.25;55.13
56582;BME280;42463;52.214;21.238;2022-11-20T08:08:13;100109.41;;;0.27;55.05
56582;BME280;42463;52.214;21.238;2022-11-20T08:10:36;100106.33;;;0.26;55.13
56582;BME280;42463;52.214;21.238;2022-11-20T08:12:59;100109.39;;;0.29;55.24
56582;BME280;42463;52.214;21.238;2022-11-20T08:15:40;100107.85;;;0.33;55.08
56582;BME280;42463;52.214;21.238;2022-11-20T08:18:04;100107.66;;;0.30;55.13
56582;BME280;42463;52.214;21.238;2022-11-20T08:20:28;100103.45;;;0.31;55.45
56582;BME280;42463;52.214;21.238;2022-11-20T08:22:51;100101.72;;;0.30;55.40
56582;BME280;42463;52.214;21.238;2022-11-20T08:25:15;100104.48;;;0.28;55.31
56582;BME280;42463;52.214;21.238;2022-11-20T08:27:39;100103.42;;;0.27;55.57
56582;BME280;42463;52.214;21.238;2022-11-20T08:30:02;100106.91;;;0.28;55.66
56582;BME280;42463;52.214;21.238;2022-11-20T08:32:26;100097.44;;;0.29;55.84
56582;BME280;42463;52.214;21.238;2022-11-20T08:34:49;100101.23;;;0.33;55.82
56582;BME280;42463;52.214;21.238;2022-11-20T08:37:12;100099.14;;;0.38;56.06
56582;BME280;42463;52.214;21.238;2022-11-20T08:39:35;100092.55;;;0.41;55.89
56582;BME280;42463;52.214;21.238;2022-11-20T08:41:58;100091.97;;;0.47;56.02
56582;BME280;42463;52.214;21.238;2022-11-20T08:44:21;100089.30;;;0.56;56.02
56582;BME280;42463;52.214;21.238;2022-11-20T08:46:45;100091.16;;;0.57;55.83
56582;BME280;42463;52.214;21.238;2022-11-20T08:49:09;100085.73;;;0.58;56.02
56582;BME280;42463;52.214;21.238;2022-11-20T08:51:33;100083.38;;;0.60;56.11
56582;BME280;42463;52.214;21.238;2022-11-20T08:53:56;100082.50;;;0.58;56.11
56582;BME280;42463;52.214;21.238;2022-11-20T08:56:19;100078.55;;;0.57;56.39
56582;BME280;42463;52.214;21.238;2022-11-20T08:58:43;100084.80;;;0.58;56.51
56582;BME280;42463;52.214;21.238;2022-11-20T09:01:06;100082.68;;;0.62;56.68
56582;BME280;42463;52.214;21.238;2022-11-20T09:03:29;100081.64;;;0.66;56.66
56582;BME280;42463;52.214;21.238;2022-11-20T09:05:55;100079.09;;;0.75;56.80
56582;BME280;42463;52.214;21.238;2022-11-20T09:08:19;100080.55;;;0.82;56.57
56582;BME280;42463;52.214;21.238;2022-11-20T09:10:42;100077.69;;;0.86;56.56
56582;BME280;42463;52.214;21.238;2022-11-20T09:13:05;100074.13;;;0.88;56.40
56582;BME280;42463;52.214;21.238;2022-11-20T09:15:28;100071.46;;;0.89;56.54
56582;BME280;42463;52.214;21.238;2022-11-20T09:17:52;100069.95;;;0.91;56.46
56582;BME280;42463;52.214;21.238;2022-11-20T09:20:15;100062.27;;;0.94;56.64
56582;BME280;42463;52.214;21.238;2022-11-20T09:22:40;100055.60;;;1.01;56.56
56582;BME280;42463;52.214;21.238;2022-11-20T09:25:03;100050.44;;;1.04;56.43
56582;BME280;42463;52.214;21.238;2022-11-20T09:27:27;100042.30;;;1.09;56.50
56582;BME280;42463;52.214;21.238;2022-11-20T09:32:46;100047.23;;;1.27;56.39
56582;BME280;42463;52.214;21.238;2022-11-20T09:35:20;100042.05;;;1.31;56.26
56582;BME280;42463;52.214;21.238;2022-11-20T09:37:47;100038.98;;;1.38;56.56
56582;BME280;42463;52.214;21.238;2022-11-20T09:40:16;100037.84;;;1.52;56.38
56582;BME280;42463;52.214;21.238;2022-11-20T09:42:43;100032.00;;;1.67;56.18
56582;BME280;42463;52.214;21.238;2022-11-20T09:45:18;100028.34;;;1.75;56.24
56582;BME280;42463;52.214;21.238;2022-11-20T09:47:47;100028.05;;;1.80;55.83
56582;BME280;42463;52.214;21.238;2022-11-20T09:50:19;100027.76;;;1.87;55.87
56582;BME280;42463;52.214;21.238;2022-11-20T09:52:46;100023.63;;;1.93;55.67
56582;BME280;42463;52.214;21.238;2022-11-20T09:55:12;100025.63;;;1.99;55.87
56582;BME280;42463;52.214;21.238;2022-11-20T09:57:37;100018.80;;;2.06;55.61
56582;BME280;42463;52.214;21.238;2022-11-20T10:00:02;100020.04;;;2.13;55.67
56582;BME280;42463;52.214;21.238;2022-11-20T10:02:35;100017.02;;;2.19;55.62
56582;BME280;42463;52.214;21.238;2022-11-20T10:05:01;100021.20;;;2.32;55.23
56582;BME280;42463;52.214;21.238;2022-11-20T10:07:27;100019.96;;;2.42;55.08
56582;BME280;42463;52.214;21.238;2022-11-20T10:09:54;100015.50;;;2.57;54.91
56582;BME280;42463;52.214;21.238;2022-11-20T10:12:19;100020.20;;;2.84;55.09
56582;BME280;42463;52.214;21.238;2022-11-20T10:14:52;100018.37;;;3.34;54.44
56582;BME280;42463;52.214;21.238;2022-11-20T10:17:22;100022.05;;;3.79;52.77
56582;BME280;42463;52.214;21.238;2022-11-20T10:19:54;100017.89;;;4.15;52.04
56582;BME280;42463;52.214;21.238;2022-11-20T10:25:15;100009.19;;;5.07;50.93
56582;BME280;42463;52.214;21.238;2022-11-20T10:27:42;100006.59;;;5.58;49.85
56582;BME280;42463;52.214;21.238;2022-11-20T10:30:09;100006.06;;;6.14;49.36
56582;BME280;42463;52.214;21.238;2022-11-20T10:32:34;100004.92;;;6.79;48.13
56582;BME280;42463;52.214;21.238;2022-11-20T10:34:59;99994.08;;;7.45;46.39
56582;BME280;42463;52.214;21.238;2022-11-20T10:37:24;99992.08;;;8.07;45.31
56582;BME280;42463;52.214;21.238;2022-11-20T10:39:49;99984.77;;;8.67;44.16
56582;BME280;42463;52.214;21.238;2022-11-20T10:42:14;99987.48;;;9.34;43.54
56582;BME280;42463;52.214;21.238;2022-11-20T10:44:39;99987.35;;;10.03;42.22
56582;BME280;42463;52.214;21.238;2022-11-20T10:47:25;99984.39;;;10.85;40.87
56582;BME280;42463;52.214;21.238;2022-11-20T10:49:51;99987.11;;;11.40;38.72
56582;BME280;42463;52.214;21.238;2022-11-20T10:52:19;99985.90;;;11.77;37.55
56582;BME280;42463;52.214;21.238;2022-11-20T10:54:47;99987.44;;;12.23;36.51
56582;BME280;42463;52.214;21.238;2022-11-20T10:57:17;99979.81;;;12.67;35.85
56582;BME280;42463;52.214;21.238;2022-11-20T10:59:47;99978.15;;;13.15;35.71
56582;BME280;42463;52.214;21.238;2022-11-20T11:02:18;99979.95;;;13.66;34.32
56582;BME280;42463;52.214;21.238;2022-11-20T11:04:42;99977.84;;;14.12;33.68
56582;BME280;42463;52.214;21.238;2022-11-20T11:07:08;99974.25;;;14.43;32.86
56582;BME280;42463;52.214;21.238;2022-11-20T11:09:34;99966.78;;;14.76;32.21
56582;BME280;42463;52.214;21.238;2022-11-20T11:11:58;99970.53;;;15.17;31.55
56582;BME280;42463;52.214;21.238;2022-11-20T11:14:21;99971.05;;;15.60;31.34
56582;BME280;42463;52.214;21.238;2022-11-20T11:16:50;99974.05;;;16.04;30.75
56582;BME280;42463;52.214;21.238;2022-11-20T11:19:14;99972.72;;;16.54;30.39
56582;BME280;42463;52.214;21.238;2022-11-20T11:21:37;99969.15;;;17.05;30.06
56582;BME280;42463;52.214;21.238;2022-11-20T11:24:14;99972.64;;;17.48;28.53
56582;BME280;42463;52.214;21.238;2022-11-20T11:26:39;99975.82;;;17.87;28.34
56582;BME280;42463;52.214;21.238;2022-11-20T11:29:03;99973.86;;;18.19;27.97
56582;BME280;42463;52.214;21.238;2022-11-20T11:31:27;99972.27;;;18.59;26.62
56582;BME280;42463;52.214;21.238;2022-11-20T11:33:51;99974.83;;;18.68;25.93
56582;BME280;42463;52.214;21.238;2022-11-20T11:36:17;99972.20;;;18.68;25.90
56582;BME280;42463;52.214;21.238;2022-11-20T11:38:44;99972.61;;;18.81;26.07
56582;BME280;42463;52.214;21.238;2022-11-20T11:41:15;99972.52;;;19.19;25.19
56582;BME280;42463;52.214;21.238;2022-11-20T11:43:39;99969.64;;;19.23;24.18
56582;BME280;42463;52.214;21.238;2022-11-20T11:46:26;99966.83;;;19.33;24.46
56582;BME280;42463;52.214;21.238;2022-11-20T11:48:55;99965.40;;;19.45;24.64
56582;BME280;42463;52.214;21.238;2022-11-20T11:51:21;99961.73;;;19.93;25.09
56582;BME280;42463;52.214;21.238;2022-11-20T11:53:44;99957.77;;;20.46;24.59
56582;BME280;42463;52.214;21.238;2022-11-20T11:56:11;99955.35;;;20.77;23.91
56582;BME280;42463;52.214;21.238;2022-11-20T11:58:41;99950.49;;;20.90;23.23
56582;BME280;42463;52.214;21.238;2022-11-20T12:01:10;99950.88;;;21.18;22.98
56582;BME280;42463;52.214;21.238;2022-11-20T12:03:36;99951.09;;;21.35;23.04
56582;BME280;42463;52.214;21.238;2022-11-20T12:06:01;99943.71;;;21.60;22.68
56582;BME280;42463;52.214;21.238;2022-11-20T12:08:29;99938.93;;;21.85;22.32
56582;BME280;42463;52.214;21.238;2022-11-20T12:10:55;99943.89;;;21.91;21.37
56582;BME280;42463;52.214;21.238;2022-11-20T12:13:25;99934.81;;;21.74;21.43
56582;BME280;42463;52.214;21.238;2022-11-20T12:15:53;99934.39;;;21.64;21.70
56582;BME280;42463;52.214;21.238;2022-11-20T12:18:17;99939.91;;;21.77;21.78
56582;BME280;42463;52.214;21.238;2022-11-20T12:20:41;99939.80;;;21.81;21.49
56582;BME280;42463;52.214;21.238;2022-11-20T12:23:08;99935.06;;;21.54;20.67
56582;BME280;42463;52.214;21.238;2022-11-20T12:25:34;99933.27;;;20.77;20.89
56582;BME280;42463;52.214;21.238;2022-11-20T12:28:04;99932.36;;;19.83;21.80
56582;BME280;42463;52.214;21.238;2022-11-20T12:30:32;99927.02;;;19.12;22.59
56582;BME280;42463;52.214;21.238;2022-11-20T12:33:10;99926.21;;;18.55;23.05
56582;BME280;42463;52.214;21.238;2022-11-20T12:35:41;99917.45;;;18.10;23.59
56582;BME280;42463;52.214;21.238;2022-11-20T12:38:23;99916.48;;;17.78;23.98
56582;BME280;42463;52.214;21.238;2022-11-20T12:40:53;99912.30;;;17.29;24.55